Bellbrook, Ohio
Current Conditions -  °F | °C
As of 10:53 PM on Saturday 24 Jan 2015 (Local Time) from KMGY Reporting Station
Overcast Overcast  
Wind Chill: 30°   Ceiling: 2900
Heat Index: 36°   Visibility: 10mi
Dew Point: 29°   Wind: 8mph
Humidity: 76%   Direction: 210°SSW
Pressure: 29.75"   Gusts: NA
Location:  39.64°N, 84.07°W
Report Text: KMGY 250353Z AUTO 21007KT 10SM OVC029 02/M02 A2975 RMK AO2 SLP082 T00221017
Loading
Personal Weather Stations






























Interactive Weather Map New forecast layout! Learn more

10-Day Weather Forecast

Advertisements
Track Severe Weather on mobile